createdAt,value
2019-05-12T00:01:13.471Z,8.28
2019-05-12T00:03:40.298Z,8.28
2019-05-12T00:06:08.770Z,8.24
2019-05-12T00:08:33.915Z,8.30
2019-05-12T00:11:00.739Z,8.36
2019-05-12T00:13:27.945Z,8.38
2019-05-12T00:15:54.386Z,8.39
2019-05-12T00:18:21.182Z,8.24
2019-05-12T00:20:47.986Z,8.29
2019-05-12T00:23:25.069Z,8.24
2019-05-12T00:25:41.607Z,8.28
2019-05-12T00:28:08.426Z,8.09
2019-05-12T00:30:38.911Z,7.94
2019-05-12T00:33:03.880Z,8.02
2019-05-12T00:35:30.690Z,8.00
2019-05-12T00:37:57.859Z,8.00
2019-05-12T00:40:24.318Z,8.03
2019-05-12T00:42:51.130Z,7.97
2019-05-12T00:45:18.152Z,7.73
2019-05-12T00:47:44.730Z,7.70
2019-05-12T00:50:11.542Z,7.65
2019-05-12T00:52:38.738Z,7.62
2019-05-12T00:55:07.673Z,7.69
2019-05-12T00:57:32.042Z,7.63
2019-05-12T00:59:58.838Z,7.50
2019-05-12T01:02:25.642Z,7.35
2019-05-12T01:04:52.451Z,7.29
2019-05-12T01:07:19.266Z,7.18
2019-05-12T01:09:46.075Z,7.24
2019-05-12T01:12:12.991Z,7.28
2019-05-12T01:14:39.802Z,7.37
2019-05-12T01:17:08.410Z,7.31
2019-05-12T01:19:33.483Z,7.39
2019-05-12T01:22:00.298Z,7.38
2019-05-12T01:24:28.151Z,7.37
2019-05-12T01:26:53.935Z,7.34
2019-05-12T01:29:20.742Z,7.30
2019-05-12T01:31:53.269Z,7.02
2019-05-12T01:34:20.080Z,6.96
2019-05-12T01:36:48.314Z,6.79
2019-05-12T01:39:13.704Z,6.70
2019-05-12T01:41:40.517Z,7.00
2019-05-12T01:44:08.862Z,7.12
2019-05-12T01:46:34.139Z,7.28
2019-05-12T01:49:00.943Z,7.19
2019-05-12T01:51:28.436Z,7.21
2019-05-12T01:54:08.649Z,7.22
2019-05-12T01:56:21.410Z,7.05
2019-05-12T01:58:48.484Z,7.07
2019-05-12T02:01:15.046Z,6.97
2019-05-12T02:03:41.858Z,6.96
2019-05-12T02:06:11.774Z,7.11
2019-05-12T02:08:43.177Z,7.11
2019-05-12T02:11:18.097Z,7.19
2019-05-12T02:13:42.551Z,7.26
2019-05-12T02:16:09.379Z,7.35
2019-05-12T02:18:38.104Z,7.30
2019-05-12T02:21:03.066Z,7.11
2019-05-12T02:23:29.826Z,7.04
2019-05-12T02:25:58.537Z,6.92
2019-05-12T02:28:23.508Z,6.99
2019-05-12T02:30:50.554Z,6.91
2019-05-12T02:33:17.142Z,6.91
2019-05-12T02:35:44.501Z,6.94
2019-05-12T02:38:10.756Z,6.85
2019-05-12T02:40:37.595Z,6.78
2019-05-12T02:43:05.638Z,6.68
2019-05-12T02:45:31.229Z,6.54
2019-05-12T02:47:58.046Z,6.58
2019-05-12T02:50:35.085Z,7.11
2019-05-12T02:52:58.747Z,6.74
2019-05-12T02:55:25.855Z,6.65
2019-05-12T02:57:55.005Z,6.59
2019-05-12T03:00:19.150Z,6.65
2019-05-12T03:02:45.957Z,6.52
2019-05-12T03:05:14.815Z,6.40
2019-05-12T03:07:39.558Z,6.43
2019-05-12T03:10:06.632Z,6.32
2019-05-12T03:12:34.435Z,6.20
2019-05-12T03:15:00.276Z,6.13
2019-05-12T03:17:27.074Z,6.02
2019-05-12T03:19:55.680Z,5.72
2019-05-12T03:22:20.700Z,5.63
2019-05-12T03:25:05.074Z,5.75
2019-05-12T03:27:17.430Z,5.54
2019-05-12T03:29:41.115Z,5.66
2019-05-12T03:32:08.734Z,5.76
2019-05-12T03:34:38.387Z,5.70
2019-05-12T03:37:07.096Z,5.86
2019-05-12T03:39:28.327Z,6.15
2019-05-12T03:41:55.148Z,5.98
2019-05-12T03:44:25.003Z,5.89
2019-05-12T03:46:48.759Z,5.55
2019-05-12T03:49:15.777Z,5.51
2019-05-12T03:51:45.326Z,5.62
2019-05-12T03:54:09.180Z,5.54
2019-05-12T03:56:35.988Z,5.26
2019-05-12T03:59:04.802Z,5.39
2019-05-12T04:01:30.259Z,5.45
2019-05-12T04:03:57.075Z,5.24
2019-05-12T04:06:24.724Z,5.32
2019-05-12T04:08:50.699Z,5.49
2019-05-12T04:11:17.633Z,5.77
2019-05-12T04:13:45.129Z,5.70
2019-05-12T04:16:11.309Z,5.72
2019-05-12T04:18:38.100Z,6.02
2019-05-12T04:21:05.710Z,6.14
2019-05-12T04:23:34.707Z,6.35
2019-05-12T04:26:08.670Z,6.68
2019-05-12T04:28:25.336Z,6.70
2019-05-12T04:30:54.557Z,7.05
2019-05-12T04:33:19.048Z,6.57
2019-05-12T04:35:45.856Z,6.92
2019-05-12T04:38:14.906Z,7.09
2019-05-12T04:40:39.483Z,6.97
2019-05-12T04:43:06.945Z,7.12
2019-05-12T04:45:34.718Z,6.85
2019-05-12T04:47:59.896Z,6.82
2019-05-12T04:50:26.708Z,6.90
2019-05-12T04:52:54.912Z,6.93
2019-05-12T04:55:20.392Z,7.03
2019-05-12T04:57:47.206Z,7.02
2019-05-12T05:00:15.891Z,7.06
2019-05-12T05:02:40.832Z,7.14
2019-05-12T05:05:07.646Z,7.21
2019-05-12T05:07:35.859Z,7.21
2019-05-12T05:10:04.488Z,7.26
2019-05-12T05:12:28.147Z,7.23
2019-05-12T05:14:55.001Z,7.36
2019-05-12T05:17:24.205Z,7.61
2019-05-12T05:19:48.574Z,8.19
2019-05-12T05:22:15.396Z,7.90
2019-05-12T05:24:44.311Z,7.93
2019-05-12T05:27:09.018Z,8.04
2019-05-12T05:29:37.210Z,8.24
2019-05-12T05:32:03.502Z,8.44
2019-05-12T05:34:29.486Z,8.64
2019-05-12T05:37:01.378Z,8.50
2019-05-12T05:39:24.289Z,8.60
2019-05-12T05:41:51.174Z,8.76
2019-05-12T05:44:16.738Z,8.82
2019-05-12T05:46:48.160Z,8.84
2019-05-12T05:49:10.330Z,8.91
2019-05-12T05:51:39.478Z,8.70
2019-05-12T05:54:04.117Z,8.74
2019-05-12T05:56:39.889Z,8.74
2019-05-12T05:58:57.614Z,8.87
2019-05-12T06:01:24.682Z,8.81
2019-05-12T06:03:53.160Z,9.11
2019-05-12T06:06:18.098Z,8.89
2019-05-12T06:08:56.474Z,8.53
2019-05-12T06:11:28.220Z,8.23
2019-05-12T06:13:50.143Z,8.30
2019-05-12T06:16:20.627Z,8.36
2019-05-12T06:18:44.096Z,8.34
2019-05-12T06:21:10.526Z,8.36
2019-05-12T06:23:39.241Z,8.37
2019-05-12T06:26:04.767Z,8.54
2019-05-12T06:28:36.198Z,8.47
2019-05-12T06:30:58.286Z,8.57
2019-05-12T06:33:31.313Z,8.70
2019-05-12T06:35:51.374Z,8.99
2019-05-12T06:38:18.182Z,9.14
2019-05-12T06:40:45.592Z,9.16
2019-05-12T06:43:13.938Z,9.05
2019-05-12T06:45:42.631Z,9.03
2019-05-12T06:48:05.386Z,8.69
2019-05-12T06:50:36.971Z,8.85
2019-05-12T06:52:59.361Z,9.28
2019-05-12T06:55:28.536Z,9.45
2019-05-12T06:57:53.989Z,9.66
2019-05-12T07:00:22.223Z,9.23
2019-05-12T07:02:52.352Z,8.95
2019-05-12T07:05:14.646Z,9.03
2019-05-12T07:07:46.130Z,8.99
2019-05-12T07:10:11.703Z,9.05
2019-05-12T07:12:43.627Z,9.13
2019-05-12T07:15:00.638Z,8.81
2019-05-12T07:17:35.451Z,8.64
2019-05-12T07:19:59.857Z,8.62
2019-05-12T07:22:31.798Z,8.67
2019-05-12T07:24:54.802Z,8.83
2019-05-12T07:27:33.754Z,8.66
2019-05-12T07:29:47.081Z,8.58
2019-05-12T07:32:16.460Z,8.59
2019-05-12T07:34:40.690Z,8.37
2019-05-12T07:37:07.498Z,8.43
2019-05-12T07:39:39.313Z,8.69
2019-05-12T07:42:03.492Z,8.79
2019-05-12T07:44:34.397Z,8.92
2019-05-12T07:46:54.978Z,9.03
2019-05-12T07:49:32.419Z,8.81
2019-05-12T07:51:50.142Z,8.97
2019-05-12T07:54:15.366Z,9.09
2019-05-12T07:56:44.236Z,9.36
2019-05-12T07:59:08.954Z,9.46
2019-05-12T08:01:44.108Z,9.60
2019-05-12T08:04:04.377Z,9.72
2019-05-12T08:06:34.705Z,9.29
2019-05-12T08:08:58.998Z,9.30
2019-05-12T08:11:23.581Z,9.19
2019-05-12T08:13:49.739Z,9.09
2019-05-12T08:16:19.602Z,9.32
2019-05-12T08:18:44.483Z,9.67
2019-05-12T08:21:10.114Z,9.94
2019-05-12T08:23:38.047Z,10.15
2019-05-12T08:26:12.253Z,10.00
2019-05-12T08:28:36.185Z,9.69
2019-05-12T08:30:57.330Z,9.38
2019-05-12T08:33:24.170Z,8.89
2019-05-12T08:35:50.982Z,8.83
2019-05-12T08:38:17.794Z,9.21
2019-05-12T08:40:50.668Z,9.23
2019-05-12T08:43:11.512Z,9.23
2019-05-12T08:45:38.322Z,9.01
2019-05-12T08:48:10.240Z,8.90
2019-05-12T08:50:35.802Z,8.91
2019-05-12T08:52:59.104Z,8.93
2019-05-12T08:55:31.275Z,9.12
2019-05-12T08:57:54.160Z,9.22
2019-05-12T09:00:31.302Z,9.35
2019-05-12T09:02:58.124Z,9.67
2019-05-12T09:05:28.062Z,10.77
2019-05-12T09:07:53.987Z,11.20
2019-05-12T09:10:18.786Z,10.84
2019-05-12T09:12:45.570Z,11.18
2019-05-12T09:15:13.612Z,10.60
2019-05-12T09:17:51.504Z,11.10
2019-05-12T09:20:08.377Z,11.26
2019-05-12T09:22:34.291Z,11.14
2019-05-12T09:25:06.185Z,10.88
2019-05-12T09:27:26.514Z,10.49
2019-05-12T09:29:53.998Z,10.17
2019-05-12T09:32:20.082Z,10.22
2019-05-12T09:34:52.589Z,9.91
2019-05-12T09:37:14.241Z,10.18
2019-05-12T09:39:43.601Z,9.85
2019-05-12T09:42:07.298Z,9.90
2019-05-12T09:44:34.242Z,9.72
2019-05-12T09:47:00.962Z,9.85
2019-05-12T09:49:30.920Z,9.96
2019-05-12T09:51:54.558Z,9.91
2019-05-12T09:54:26.200Z,10.12
2019-05-12T09:56:50.096Z,10.19
2019-05-12T09:59:22.778Z,10.21
2019-05-12T10:01:45.750Z,10.20
2019-05-12T10:04:10.275Z,10.12
2019-05-12T10:06:35.366Z,10.68
2019-05-12T10:09:03.473Z,10.80
2019-05-12T10:11:29.259Z,11.02
2019-05-12T10:14:00.297Z,10.83
2019-05-12T10:16:24.121Z,10.98
2019-05-12T10:18:52.792Z,11.37
2019-05-12T10:21:17.630Z,11.40
2019-05-12T10:23:43.621Z,11.26
2019-05-12T10:26:11.680Z,11.24
2019-05-12T10:28:36.822Z,11.22
2019-05-12T10:31:04.144Z,11.29
2019-05-12T10:33:30.437Z,11.54
2019-05-12T10:35:59.285Z,11.53
2019-05-12T10:38:24.232Z,12.19
2019-05-12T10:40:50.827Z,12.21
2019-05-12T10:43:17.618Z,11.73
2019-05-12T10:45:44.411Z,11.36
2019-05-12T10:48:11.206Z,12.12
2019-05-12T10:50:38.003Z,12.34
2019-05-12T10:53:04.913Z,11.59
2019-05-12T10:55:33.543Z,11.62
2019-05-12T10:58:01.544Z,11.43
2019-05-12T11:00:26.884Z,11.26
2019-05-12T11:02:53.473Z,11.41
2019-05-12T11:05:25.464Z,11.44
2019-05-12T11:07:45.607Z,11.42
2019-05-12T11:10:19.459Z,11.27
2019-05-12T11:12:39.198Z,10.96
2019-05-12T11:15:06.803Z,11.28
2019-05-12T11:17:40.224Z,11.57
2019-05-12T11:20:05.496Z,12.15
2019-05-12T11:22:33.334Z,12.61
2019-05-12T11:24:59.082Z,12.60
2019-05-12T11:27:25.891Z,13.07
2019-05-12T11:29:53.428Z,13.25
2019-05-12T11:32:19.486Z,13.46
2019-05-12T11:34:46.295Z,13.47
2019-05-12T11:37:13.926Z,13.27
2019-05-12T11:39:44.610Z,12.51
2019-05-12T11:42:07.117Z,13.17
2019-05-12T11:44:33.938Z,12.93
2019-05-12T11:47:00.738Z,12.60
2019-05-12T11:49:28.140Z,13.21
2019-05-12T11:51:54.567Z,13.76
2019-05-12T11:54:24.079Z,12.89
2019-05-12T11:56:50.335Z,12.32
2019-05-12T11:59:15.265Z,12.33
2019-05-12T12:01:47.467Z,12.44
2019-05-12T12:04:08.846Z,13.16
2019-05-12T12:06:35.642Z,13.43
2019-05-12T12:09:03.934Z,13.24
2019-05-12T12:11:29.470Z,13.32
2019-05-12T12:14:00.296Z,13.26
2019-05-12T12:16:23.717Z,12.80
2019-05-12T12:18:59.573Z,12.81
2019-05-12T12:21:16.653Z,12.77
2019-05-12T12:23:48.794Z,12.90
2019-05-12T12:26:10.254Z,12.67
2019-05-12T12:28:37.053Z,13.21
2019-05-12T12:31:07.614Z,13.50
2019-05-12T12:33:38.648Z,13.40
2019-05-12T12:36:00.679Z,13.42
2019-05-12T12:38:25.385Z,13.58
2019-05-12T12:40:53.569Z,13.75
2019-05-12T12:43:18.994Z,13.83
2019-05-12T12:45:49.435Z,14.08
2019-05-12T12:48:19.335Z,14.25
2019-05-12T12:50:44.559Z,14.57
2019-05-12T12:53:09.846Z,14.47
2019-05-12T12:55:38.054Z,13.52
2019-05-12T12:58:03.496Z,13.83
2019-05-12T13:00:40.696Z,14.03
2019-05-12T13:02:57.053Z,14.24
2019-05-12T13:05:24.005Z,14.38
2019-05-12T13:07:50.647Z,13.76
2019-05-12T13:10:17.478Z,13.74
2019-05-12T13:12:44.274Z,14.31
2019-05-12T13:15:11.074Z,14.12
2019-05-12T13:17:41.743Z,14.20
2019-05-12T13:20:04.746Z,14.15
2019-05-12T13:22:33.649Z,13.52
2019-05-12T13:25:04.339Z,13.16
2019-05-12T13:27:29.059Z,13.79
2019-05-12T13:29:53.741Z,14.20
2019-05-12T13:32:25.842Z,14.20
2019-05-12T13:34:45.890Z,14.23
2019-05-12T13:37:15.450Z,14.54
2019-05-12T13:39:39.514Z,14.59
2019-05-12T13:42:06.309Z,13.94
2019-05-12T13:44:38.736Z,14.13
2019-05-12T13:46:59.921Z,13.89
2019-05-12T13:49:29.942Z,14.02
2019-05-12T13:51:53.882Z,13.67
2019-05-12T13:54:26.053Z,14.18
2019-05-12T13:56:47.170Z,14.42
2019-05-12T13:59:20.569Z,14.39
2019-05-12T14:01:42.834Z,13.88
2019-05-12T14:04:07.599Z,13.56
2019-05-12T14:06:37.857Z,14.07
2019-05-12T14:09:01.202Z,14.22
2019-05-12T14:11:28.082Z,14.45
2019-05-12T14:13:54.874Z,14.26
2019-05-12T14:16:23.846Z,13.91
2019-05-12T14:18:51.068Z,14.09
2019-05-12T14:21:15.263Z,14.20
2019-05-12T14:23:43.653Z,14.51
2019-05-12T14:26:09.430Z,14.66
2019-05-12T14:28:39.420Z,14.62
2019-05-12T14:31:02.758Z,14.51
2019-05-12T14:33:29.806Z,13.99
2019-05-12T14:35:56.354Z,14.22
2019-05-12T14:38:25.420Z,14.37
2019-05-12T14:40:50.000Z,14.31
2019-05-12T14:43:21.268Z,14.06
2019-05-12T14:45:44.092Z,14.29
2019-05-12T14:48:10.454Z,14.34
2019-05-12T14:50:37.250Z,14.45
2019-05-12T14:53:04.046Z,14.81
2019-05-12T14:55:30.916Z,14.52
2019-05-12T14:57:57.718Z,14.43
2019-05-12T15:00:24.522Z,14.36
2019-05-12T15:02:51.414Z,14.40
2019-05-12T15:05:18.186Z,14.53
2019-05-12T15:07:51.798Z,14.54
2019-05-12T15:10:13.994Z,14.59
2019-05-12T15:12:38.704Z,14.34
2019-05-12T15:15:09.193Z,14.19
2019-05-12T15:17:33.759Z,14.30
2019-05-12T15:20:00.390Z,14.05
2019-05-12T15:22:26.155Z,14.38
2019-05-12T15:24:57.001Z,14.52
2019-05-12T15:27:19.774Z,14.15
2019-05-12T15:29:49.913Z,14.07
2019-05-12T15:32:15.278Z,13.95
2019-05-12T15:34:40.314Z,13.58
2019-05-12T15:37:07.174Z,13.85
2019-05-12T15:39:33.991Z,13.86
2019-05-12T15:42:00.794Z,14.07
2019-05-12T15:44:31.324Z,14.04
2019-05-12T15:46:54.404Z,14.32
2019-05-12T15:49:21.212Z,14.51
2019-05-12T15:51:54.086Z,14.41
2019-05-12T15:54:14.938Z,14.27
2019-05-12T15:56:41.814Z,14.39
2019-05-12T15:59:08.625Z,14.54
2019-05-12T16:01:35.434Z,14.25
2019-05-12T16:04:03.676Z,14.29
2019-05-12T16:06:29.126Z,14.41
2019-05-12T16:08:56.206Z,14.31
2019-05-12T16:11:24.413Z,14.22
2019-05-12T16:13:54.662Z,14.25
2019-05-12T16:16:16.613Z,14.42
2019-05-12T16:18:48.937Z,14.36
2019-05-12T16:21:10.306Z,14.58
2019-05-12T16:23:37.183Z,14.99
2019-05-12T16:26:08.080Z,14.91
2019-05-12T16:28:30.791Z,14.78
2019-05-12T16:30:58.794Z,14.87
2019-05-12T16:33:24.390Z,14.76
2019-05-12T16:35:51.344Z,14.62
2019-05-12T16:38:20.037Z,14.72
2019-05-12T16:40:49.584Z,14.68
2019-05-12T16:43:14.300Z,14.67
2019-05-12T16:45:38.918Z,14.65
2019-05-12T16:48:11.317Z,14.43
2019-05-12T16:50:34.499Z,14.32
2019-05-12T16:52:59.415Z,14.44
2019-05-12T16:55:26.222Z,14.65
2019-05-12T16:57:56.002Z,14.63
2019-05-12T17:00:19.930Z,14.43
2019-05-12T17:02:53.638Z,14.43
2019-05-12T17:05:20.212Z,14.61
2019-05-12T17:07:40.344Z,14.72
2019-05-12T17:10:11.507Z,14.87
2019-05-12T17:12:37.109Z,15.10
2019-05-12T17:15:00.869Z,15.25
2019-05-12T17:17:28.522Z,15.05
2019-05-12T17:19:55.376Z,14.78
2019-05-12T17:22:23.938Z,14.75
2019-05-12T17:24:49.109Z,15.09
2019-05-12T17:27:23.872Z,15.07
2019-05-12T17:29:43.519Z,15.39
2019-05-12T17:32:09.606Z,15.02
2019-05-12T17:34:40.366Z,14.99
2019-05-12T17:37:04.011Z,14.96
2019-05-12T17:39:37.308Z,15.04
2019-05-12T17:41:56.898Z,15.43
2019-05-12T17:44:23.735Z,15.21
2019-05-12T17:46:50.623Z,15.64
2019-05-12T17:49:25.582Z,15.59
2019-05-12T17:51:44.306Z,15.28
2019-05-12T17:54:15.690Z,15.31
2019-05-12T17:56:38.828Z,15.73
2019-05-12T17:59:04.860Z,15.72
2019-05-12T18:01:35.405Z,15.10
2019-05-12T18:03:58.589Z,14.35
2019-05-12T18:06:26.740Z,14.03
2019-05-12T18:08:53.368Z,13.92
2019-05-12T18:11:19.062Z,13.81
2019-05-12T18:13:45.871Z,13.80
2019-05-12T18:16:20.420Z,13.77
2019-05-12T18:18:39.542Z,13.66
2019-05-12T18:21:06.365Z,13.52
2019-05-12T18:23:34.527Z,13.51
2019-05-12T18:26:02.986Z,13.44
2019-05-12T18:28:29.442Z,13.36
2019-05-12T18:30:54.726Z,13.24
2019-05-12T18:33:32.596Z,13.20
2019-05-12T18:35:48.374Z,13.25
2019-05-12T18:38:21.536Z,13.26
2019-05-12T18:40:42.036Z,13.40
2019-05-12T18:43:08.870Z,13.13
2019-05-12T18:45:35.688Z,13.08
2019-05-12T18:48:10.151Z,12.98
2019-05-12T18:50:31.393Z,12.90
2019-05-12T18:52:56.134Z,12.81
2019-05-12T18:55:23.542Z,12.66
2019-05-12T18:57:50.140Z,12.52
2019-05-12T19:00:17.378Z,12.44
2019-05-12T19:02:44.326Z,12.36
2019-05-12T19:05:12.966Z,12.51
2019-05-12T19:07:39.963Z,12.50
2019-05-12T19:10:05.150Z,12.36
2019-05-12T19:12:35.217Z,12.33
2019-05-12T19:14:58.754Z,12.21
2019-05-12T19:17:25.553Z,12.43
2019-05-12T19:19:59.623Z,12.05
2019-05-12T19:22:19.138Z,11.92
2019-05-12T19:24:50.146Z,12.01
2019-05-12T19:27:18.023Z,12.02
2019-05-12T19:29:46.647Z,11.89
2019-05-12T19:32:06.518Z,12.10
2019-05-12T19:34:37.378Z,12.13
2019-05-12T19:37:00.151Z,11.96
2019-05-12T19:39:26.945Z,11.92
2019-05-12T19:41:54.322Z,11.85
2019-05-12T19:44:26.359Z,11.72
2019-05-12T19:46:49.466Z,11.58
2019-05-12T19:49:14.150Z,11.37
2019-05-12T19:51:41.071Z,11.18
2019-05-12T19:54:07.883Z,10.97
2019-05-12T19:56:39.011Z,10.74
2019-05-12T19:59:01.494Z,10.68
2019-05-12T20:01:32.894Z,10.72
2019-05-12T20:03:55.851Z,10.64
2019-05-12T20:06:24.159Z,10.42
2019-05-12T20:08:55.689Z,10.43
2019-05-12T20:11:20.026Z,10.48
2019-05-12T20:13:44.501Z,10.64
2019-05-12T20:16:11.482Z,10.54
2019-05-12T20:18:43.103Z,10.57
2019-05-12T20:21:04.418Z,10.56
2019-05-12T20:23:30.306Z,10.71
2019-05-12T20:25:57.122Z,10.59
2019-05-12T20:28:24.413Z,10.53
2019-05-12T20:30:54.395Z,10.73
2019-05-12T20:33:17.582Z,10.58
2019-05-12T20:35:48.939Z,10.36
2019-05-12T20:38:11.191Z,10.12
2019-05-12T20:40:39.888Z,9.98
2019-05-12T20:43:08.307Z,9.81
2019-05-12T20:45:40.496Z,9.67
2019-05-12T20:48:00.609Z,9.39
2019-05-12T20:50:32.930Z,9.46
2019-05-12T20:52:58.879Z,9.44
2019-05-12T20:55:23.293Z,9.47
2019-05-12T20:57:52.539Z,9.88
2019-05-12T21:00:14.787Z,9.83
2019-05-12T21:02:44.004Z,9.87
2019-05-12T21:05:14.861Z,9.61
2019-05-12T21:07:35.194Z,9.43
2019-05-12T21:10:04.066Z,8.88
2019-05-12T21:12:29.206Z,8.87
2019-05-12T21:15:12.375Z,8.67
2019-05-12T21:17:39.067Z,8.59
2019-05-12T21:19:56.923Z,8.60
2019-05-12T21:22:16.742Z,8.54
2019-05-12T21:24:43.876Z,8.43
2019-05-12T21:27:18.310Z,8.39
2019-05-12T21:29:38.334Z,8.32
2019-05-12T21:32:12.016Z,8.37
2019-05-12T21:34:34.388Z,8.27
2019-05-12T21:37:04.056Z,8.13
2019-05-12T21:39:25.586Z,8.06
2019-05-12T21:41:54.832Z,8.05
2019-05-12T21:44:19.250Z,7.97
2019-05-12T21:46:57.447Z,7.78
2019-05-12T21:49:15.566Z,7.77
2019-05-12T21:51:40.498Z,7.78
2019-05-12T21:54:07.327Z,7.79
2019-05-12T21:56:37.954Z,7.61
2019-05-12T21:59:00.952Z,7.60
2019-05-12T22:01:27.778Z,7.56
2019-05-12T22:04:01.957Z,7.56
2019-05-12T22:06:24.688Z,7.76
2019-05-12T22:08:55.475Z,8.14
2019-05-12T22:11:15.334Z,8.19
2019-05-12T22:13:46.894Z,8.15
2019-05-12T22:16:08.961Z,8.22
2019-05-12T22:18:35.776Z,8.24
2019-05-12T22:21:06.495Z,8.36
2019-05-12T22:23:29.410Z,8.38
2019-05-12T22:26:00.212Z,8.49
2019-05-12T22:28:23.905Z,8.41
2019-05-12T22:30:49.870Z,8.42
2019-05-12T22:33:16.683Z,8.48
2019-05-12T22:35:44.340Z,8.37
2019-05-12T22:38:16.623Z,8.21
2019-05-12T22:40:37.154Z,8.21
2019-05-12T22:43:06.951Z,8.13
2019-05-12T22:45:36.080Z,8.15
2019-05-12T22:47:59.119Z,8.22
2019-05-12T22:50:27.181Z,7.94
2019-05-12T22:52:52.983Z,7.88
2019-05-12T22:55:21.111Z,7.89
2019-05-12T22:57:44.797Z,7.77
2019-05-12T23:00:13.586Z,7.70
2019-05-12T23:02:38.417Z,7.79
2019-05-12T23:05:05.228Z,7.80
2019-05-12T23:07:33.128Z,7.73
2019-05-12T23:10:00.456Z,7.73
2019-05-12T23:12:25.694Z,7.88
2019-05-12T23:14:54.074Z,7.83
2019-05-12T23:17:19.359Z,8.03
2019-05-12T23:19:51.355Z,7.84
2019-05-12T23:22:14.206Z,7.66
2019-05-12T23:24:40.806Z,7.49
2019-05-12T23:27:08.848Z,7.47
2019-05-12T23:29:33.964Z,7.55
2019-05-12T23:32:00.825Z,7.60
2019-05-12T23:34:27.147Z,7.71
2019-05-12T23:36:56.863Z,7.61
2019-05-12T23:39:20.787Z,7.39
2019-05-12T23:41:47.630Z,7.34
2019-05-12T23:44:14.434Z,7.18
2019-05-12T23:46:43.603Z,7.11
2019-05-12T23:49:08.052Z,6.93
2019-05-12T23:51:34.851Z,6.93
2019-05-12T23:54:03.627Z,6.94
2019-05-12T23:56:28.466Z,6.97
2019-05-12T23:58:55.275Z,6.93
